createdAt,value
2022-11-25T00:00:32.227Z,2.00
2022-11-25T00:05:56.216Z,1.80
2022-11-25T00:11:25.254Z,1.90
2022-11-25T00:16:50.431Z,1.73
2022-11-25T00:22:15.277Z,2.30
2022-11-25T00:27:42.271Z,1.77
2022-11-25T00:33:07.247Z,1.70
2022-11-25T00:38:25.265Z,1.67
2022-11-25T00:44:05.261Z,1.63
2022-11-25T00:49:30.263Z,1.58
2022-11-25T00:54:54.259Z,1.90
2022-11-25T01:00:23.278Z,2.17
2022-11-25T01:05:48.378Z,1.90
2022-11-25T01:11:16.304Z,1.92
2022-11-25T01:16:43.310Z,1.90
2022-11-25T01:22:14.301Z,2.13
2022-11-25T01:27:39.304Z,1.93
2022-11-25T01:33:06.273Z,1.98
2022-11-25T01:38:31.315Z,1.90
2022-11-25T01:43:56.288Z,1.90
2022-11-25T01:49:27.297Z,1.88
2022-11-25T01:54:56.277Z,2.20
2022-11-25T02:00:23.282Z,2.30
2022-11-25T02:05:58.288Z,1.90
2022-11-25T02:11:31.319Z,1.88
2022-11-25T02:16:56.395Z,2.05
2022-11-25T02:22:30.290Z,1.90
2022-11-25T02:28:01.297Z,2.15
2022-11-25T02:33:28.800Z,2.00
2022-11-25T02:38:57.322Z,2.50
2022-11-25T02:44:27.299Z,2.67
2022-11-25T02:49:52.311Z,2.30
2022-11-25T02:55:17.381Z,2.38
2022-11-25T03:00:45.401Z,2.65
2022-11-25T03:06:10.363Z,2.40
2022-11-25T03:11:54.303Z,2.50
2022-11-25T03:17:22.330Z,2.80
2022-11-25T03:22:46.362Z,2.72
2022-11-25T03:28:12.375Z,2.70
2022-11-25T03:33:40.300Z,2.60
2022-11-25T03:39:05.320Z,2.80
2022-11-25T03:44:29.316Z,2.80
2022-11-25T03:49:57.345Z,2.50
2022-11-25T03:55:23.374Z,2.90
2022-11-25T04:00:49.385Z,2.80
2022-11-25T04:06:16.383Z,2.72
2022-11-25T04:11:56.348Z,3.17
2022-11-25T04:17:30.453Z,2.75
2022-11-25T04:22:58.346Z,2.60
2022-11-25T04:28:24.482Z,2.83
2022-11-25T04:33:52.530Z,3.05
2022-11-25T04:39:20.355Z,3.08
2022-11-25T04:45:14.183Z,3.00
2022-11-25T04:50:36.378Z,3.00
2022-11-25T04:56:07.464Z,2.92
2022-11-25T05:01:34.522Z,3.45
2022-11-25T05:07:14.459Z,3.75
2022-11-25T05:12:50.433Z,3.72
2022-11-25T05:18:15.373Z,4.18
2022-11-25T05:23:39.464Z,4.07
2022-11-25T05:29:07.393Z,3.70
2022-11-25T05:34:32.833Z,3.83
2022-11-25T05:39:59.391Z,3.92
2022-11-25T05:45:27.376Z,4.15
2022-11-25T05:50:52.398Z,4.22
2022-11-25T05:56:20.451Z,4.82
2022-11-25T06:02:14.466Z,4.75
2022-11-25T06:07:38.463Z,4.30
2022-11-25T06:13:03.416Z,4.40
2022-11-25T06:18:33.389Z,4.10
2022-11-25T06:23:59.383Z,3.53
2022-11-25T06:29:24.386Z,3.90
2022-11-25T06:34:52.409Z,4.20
2022-11-25T06:40:43.394Z,4.50
2022-11-25T06:46:13.485Z,4.30
2022-11-25T06:51:47.405Z,4.18
2022-11-25T06:57:12.404Z,5.10
2022-11-25T07:02:42.887Z,4.75
2022-11-25T07:08:13.447Z,4.53
2022-11-25T07:13:38.543Z,4.55
2022-11-25T07:19:03.555Z,4.38
2022-11-25T07:24:32.589Z,3.83
2022-11-25T07:30:41.205Z,4.07
2022-11-25T07:35:42.400Z,3.40
2022-11-25T07:41:16.413Z,3.33
2022-11-25T07:46:43.497Z,2.83
2022-11-25T07:52:09.449Z,3.10
2022-11-25T07:57:36.465Z,2.72
2022-11-25T08:03:01.838Z,2.50
2022-11-25T08:08:26.437Z,2.65
2022-11-25T08:13:54.468Z,2.40
2022-11-25T08:19:21.946Z,2.20
2022-11-25T08:24:48.442Z,2.17
2022-11-25T08:30:16.816Z,2.13
2022-11-25T08:35:44.489Z,2.03
2022-11-25T08:41:09.453Z,1.80
2022-11-25T08:46:40.606Z,1.90
2022-11-25T08:52:06.276Z,1.70
2022-11-25T08:57:31.482Z,1.65
2022-11-25T09:02:58.532Z,1.70
2022-11-25T09:08:24.464Z,1.60
2022-11-25T09:13:51.085Z,1.70
2022-11-25T09:19:18.474Z,1.70
2022-11-25T09:24:42.479Z,1.60
2022-11-25T09:30:07.530Z,1.63
2022-11-25T09:35:35.464Z,1.60
2022-11-25T09:41:05.613Z,1.40
2022-11-25T09:46:53.526Z,1.40
2022-11-25T09:52:31.487Z,1.63
2022-11-25T09:58:10.483Z,1.42
2022-11-25T10:03:42.577Z,1.58
2022-11-25T10:09:13.520Z,1.38
2022-11-25T10:14:45.485Z,1.20
2022-11-25T10:20:19.737Z,1.33
2022-11-25T10:25:49.567Z,1.40
2022-11-25T10:31:20.585Z,1.20
2022-11-25T10:36:50.484Z,1.10
2022-11-25T10:42:20.512Z,1.33
2022-11-25T10:47:54.603Z,1.40
2022-11-25T10:53:28.666Z,1.52
2022-11-25T10:58:56.525Z,1.40
2022-11-25T11:04:27.517Z,1.20
2022-11-25T11:09:52.634Z,1.37
2022-11-25T11:15:36.524Z,1.58
2022-11-25T11:21:04.940Z,1.20
2022-11-25T11:26:38.553Z,1.17
2022-11-25T11:32:09.520Z,1.30
2022-11-25T11:37:50.524Z,1.20
2022-11-25T11:43:45.532Z,1.40
2022-11-25T11:49:30.592Z,1.10
2022-11-25T11:55:01.518Z,1.10
2022-11-25T12:00:35.553Z,1.20
2022-11-25T12:06:06.838Z,1.70
2022-11-25T12:11:36.570Z,1.43
2022-11-25T12:17:07.554Z,1.25
2022-11-25T12:22:42.930Z,1.63
2022-11-25T12:28:11.536Z,1.50
2022-11-25T12:33:43.567Z,1.38
2022-11-25T12:39:15.594Z,1.30
2022-11-25T12:44:46.609Z,1.33
2022-11-25T12:50:11.567Z,1.30
2022-11-25T12:55:40.602Z,1.05
2022-11-25T13:01:38.971Z,1.08
2022-11-25T13:07:20.625Z,1.20
2022-11-25T13:18:27.600Z,1.27
2022-11-25T13:24:02.612Z,1.50
2022-11-25T13:30:11.586Z,1.20
2022-11-25T13:36:02.634Z,1.73
2022-11-25T13:41:46.621Z,1.60
2022-11-25T13:47:14.295Z,1.35
2022-11-25T13:52:56.590Z,1.40
2022-11-25T13:58:42.599Z,1.58
2022-11-25T14:04:09.659Z,1.30
2022-11-25T14:09:53.670Z,1.55
2022-11-25T14:15:52.644Z,1.33
2022-11-25T14:21:22.624Z,1.40
2022-11-25T14:26:52.633Z,1.50
2022-11-25T14:32:22.605Z,2.15
2022-11-25T14:37:53.622Z,1.63
2022-11-25T14:43:27.610Z,1.70
2022-11-25T14:48:53.775Z,1.75
2022-11-25T14:54:19.642Z,1.60
2022-11-25T14:59:48.691Z,2.00
2022-11-25T15:05:33.645Z,2.05
2022-11-25T15:11:02.639Z,1.90
2022-11-25T15:16:33.728Z,1.98
2022-11-25T15:22:23.191Z,1.90
2022-11-25T15:27:48.669Z,2.13
2022-11-25T15:33:20.670Z,2.00
2022-11-25T15:38:53.923Z,1.90
2022-11-25T15:44:28.654Z,2.00
2022-11-25T15:49:55.652Z,1.70
2022-11-25T15:55:29.758Z,1.80
2022-11-25T16:00:54.712Z,1.70
2022-11-25T16:06:33.664Z,2.00
2022-11-25T16:12:04.730Z,2.60
2022-11-25T16:17:29.660Z,2.63
2022-11-25T16:22:56.641Z,2.53
2022-11-25T16:28:28.677Z,2.83
2022-11-25T16:33:52.661Z,3.38
2022-11-25T16:39:20.700Z,3.15
2022-11-25T16:44:46.711Z,3.33
2022-11-25T16:50:14.250Z,2.65
2022-11-25T16:55:42.805Z,2.58
2022-11-25T17:01:07.686Z,1.80
2022-11-25T17:06:34.693Z,1.80
2022-11-25T17:12:08.703Z,1.80
2022-11-25T17:17:35.899Z,1.83
2022-11-25T17:22:59.712Z,1.85
2022-11-25T17:28:30.674Z,2.13
2022-11-25T17:33:55.715Z,2.43
2022-11-25T17:39:21.718Z,3.20
2022-11-25T17:44:54.086Z,3.60
2022-11-25T17:50:30.697Z,4.30
2022-11-25T17:55:57.734Z,3.92
2022-11-25T18:01:25.822Z,3.55
2022-11-25T18:06:49.730Z,3.50
2022-11-25T18:12:30.235Z,6.78
2022-11-25T18:17:58.724Z,5.65
2022-11-25T18:23:25.858Z,5.30
2022-11-25T18:28:50.759Z,4.80
2022-11-25T18:34:17.759Z,4.97
2022-11-25T18:39:42.713Z,4.25
2022-11-25T18:45:07.743Z,4.50
2022-11-25T18:50:36.918Z,3.75
2022-11-25T18:56:02.724Z,2.63
2022-11-25T19:01:28.815Z,3.05
2022-11-25T19:06:55.760Z,2.58
2022-11-25T19:12:26.720Z,2.20
2022-11-25T19:17:50.741Z,2.30
2022-11-25T19:23:28.768Z,2.28
2022-11-25T19:28:52.771Z,2.40
2022-11-25T19:34:22.780Z,2.33
2022-11-25T19:39:51.946Z,2.17
2022-11-25T19:45:19.777Z,2.03
2022-11-25T19:50:44.924Z,2.50
2022-11-25T19:56:12.781Z,2.45
2022-11-25T20:01:42.826Z,2.67
2022-11-25T20:07:07.796Z,2.58
2022-11-25T20:12:42.775Z,2.45
2022-11-25T20:18:13.748Z,2.50
2022-11-25T20:23:44.555Z,2.30
2022-11-25T20:29:19.782Z,2.40
2022-11-25T20:34:47.615Z,2.28
2022-11-25T20:40:14.461Z,2.33
2022-11-25T20:45:41.888Z,2.67
2022-11-25T20:51:09.803Z,2.20
2022-11-25T20:56:36.771Z,2.40
2022-11-25T21:02:04.824Z,2.38
2022-11-25T21:07:30.847Z,2.58
2022-11-25T21:13:02.797Z,2.30
2022-11-25T21:18:30.838Z,2.38
2022-11-25T21:23:54.798Z,2.60
2022-11-25T21:29:23.787Z,2.60
2022-11-25T21:34:50.818Z,2.60
2022-11-25T21:40:24.837Z,2.85
2022-11-25T21:45:48.855Z,2.67
2022-11-25T21:51:18.830Z,2.70
2022-11-25T21:56:46.836Z,2.90
2022-11-25T22:02:11.836Z,3.03
2022-11-25T22:07:38.869Z,3.38
2022-11-25T22:13:10.815Z,3.17
2022-11-25T22:24:04.862Z,3.33
2022-11-25T22:29:32.849Z,3.42
2022-11-25T22:34:57.860Z,3.40
2022-11-25T22:40:31.858Z,2.95
2022-11-25T22:45:56.907Z,3.17
2022-11-25T22:51:21.863Z,3.03
2022-11-25T22:56:49.852Z,2.97
2022-11-25T23:02:13.886Z,3.17
2022-11-25T23:07:39.021Z,3.00
2022-11-25T23:13:12.820Z,3.40
2022-11-25T23:18:41.832Z,3.35
2022-11-25T23:24:07.009Z,3.35
2022-11-25T23:29:34.859Z,3.45
2022-11-25T23:34:59.923Z,3.78
2022-11-25T23:40:30.180Z,3.20
2022-11-25T23:46:03.226Z,3.45
2022-11-25T23:51:27.860Z,3.85
2022-11-25T23:56:52.881Z,4.10
